Terminal Aerodrome Forecast
Issued by NWS

Home | Current Version | Previous Version | Text Only | Print | Product List | Glossary On
Versions: 1 2 3 4 5 6 7 8 9 10 11 12 13 14 15 16
000
FTUS44 KSJT 301700
TAFJCT
TAF
KJCT 301735Z 3018/3118 VRB05KT P6SM VCTS BKN060CB
     FM302300 12006KT P6SM BKN070
     FM310600 16005KT P6SM SCT120
     FM311500 18006KT P6SM SCT060=

USA.gov is the U.S. government's official web portal to all federal, state and local government web resources and services.